Time;durP1;ratioP1;P1;durP2;ratioP2;P2;SDS_P1;SDS_P2;PMS_P1;PMS_P2;Temp;Humidity;BMP_temperature;BMP_pressure;BME280_temperature;BME280_humidity;BME280_pressure;Samples;Min_cycle;Max_cycle;Signal;HPM_P1;HPM_P2
2022/11/15 00:01:08;;;;;;;9.10;6.40;;;;;;;;;;1771400;79;26218;-65
2022/11/15 00:03:36;;;;;;;8.43;6.60;;;;;;;;;;1838208;78;26169;-65
2022/11/15 00:06:05;;;;;;;8.73;7.10;;;;;;;;;;1837953;78;26287;-64
2022/11/15 00:08:34;;;;;;;7.55;6.00;;;;;;;;;;1838152;78;26708;-64
2022/11/15 00:11:03;;;;;;;9.57;5.83;;;;;;;;;;1784668;79;26575;-64
2022/11/15 00:13:31;;;;;;;11.33;7.30;;;;;;;;;;1813992;79;26235;-64
2022/11/15 00:16:01;;;;;;;11.27;6.20;;;;;;;;;;1813189;79;26795;-65
2022/11/15 00:18:30;;;;;;;10.07;5.80;;;;;;;;;;1782329;79;26320;-64
2022/11/15 00:21:05;;;;;;;9.10;6.10;;;;;;;;;;1811994;79;26309;-64
2022/11/15 00:23:33;;;;;;;;;;;;;;;;;;1813986;79;26403;-64
2022/11/15 00:26:01;;;;;;;10.60;5.70;;;;;;;;;;1831485;78;26210;-64
2022/11/15 00:28:30;;;;;;;8.83;7.03;;;;;;;;;;1831666;76;26678;-67
2022/11/15 00:31:02;;;;;;;9.10;6.23;;;;;;;;;;1831348;78;26294;-64
2022/11/15 00:33:30;;;;;;;9.67;5.80;;;;;;;;;;1831752;76;26264;-65
2022/11/15 00:36:02;;;;;;;8.93;7.30;;;;;;;;;;1831528;76;26222;-64
2022/11/15 00:38:32;;;;;;;9.03;6.97;;;;;;;;;;1831549;78;26733;-64
2022/11/15 00:41:01;;;;;;;11.13;6.80;;;;;;;;;;1831361;76;26259;-64
2022/11/15 00:43:30;;;;;;;9.93;6.90;;;;;;;;;;1831630;76;26266;-65
2022/11/15 00:45:58;;;;;;;12.27;6.50;;;;;;;;;;1831515;76;26212;-65
2022/11/15 00:48:27;;;;;;;9.77;5.80;;;;;;;;;;1799393;78;26705;-65
2022/11/15 00:50:55;;;;;;;9.53;5.20;;;;;;;;;;1831512;76;23176;-65
2022/11/15 00:53:24;;;;;;;9.27;5.10;;;;;;;;;;1831561;76;26210;-65
2022/11/15 00:55:52;;;;;;;10.20;5.70;;;;;;;;;;1799311;78;26309;-65
2022/11/15 00:58:21;;;;;;;9.43;5.53;;;;;;;;;;1831893;78;25147;-65
2022/11/15 01:00:49;;;;;;;12.17;6.30;;;;;;;;;;1799616;78;26298;-64
2022/11/15 01:03:17;;;;;;;6.97;6.40;;;;;;;;;;1831944;76;26211;-65
2022/11/15 01:05:46;;;;;;;10.13;6.20;;;;;;;;;;1771640;79;26301;-66
2022/11/15 01:08:15;;;;;;;8.00;6.93;;;;;;;;;;1838232;78;26210;-64
2022/11/15 01:10:43;;;;;;;12.23;5.80;;;;;;;;;;1831080;78;25203;-65
2022/11/15 01:13:12;;;;;;;8.93;4.83;;;;;;;;;;1829829;76;26274;-64
2022/11/15 01:15:41;;;;;;;11.10;4.53;;;;;;;;;;1829634;78;24197;-64
2022/11/15 01:18:10;;;;;;;8.47;5.80;;;;;;;;;;1829596;76;26830;-64
2022/11/15 01:20:41;;;;;;;10.20;3.60;;;;;;;;;;1829462;76;26349;-65
2022/11/15 01:23:11;;;;;;;11.03;4.13;;;;;;;;;;1831471;76;26191;-65
2022/11/15 01:25:39;;;;;;;13.90;3.70;;;;;;;;;;1831499;76;26234;-65
2022/11/15 01:28:07;;;;;;;9.17;3.43;;;;;;;;;;1831635;76;26228;-65
2022/11/15 01:30:37;;;;;;;9.75;3.55;;;;;;;;;;1831517;76;26268;-64
2022/11/15 01:33:05;;;;;;;9.40;3.27;;;;;;;;;;1831573;76;26219;-64
2022/11/15 01:35:34;;;;;;;9.63;3.70;;;;;;;;;;1831565;76;25147;-65
2022/11/15 01:38:02;;;;;;;10.63;3.70;;;;;;;;;;1831530;76;26204;-65
2022/11/15 01:40:31;;;;;;;12.53;4.07;;;;;;;;;;1799474;78;26764;-65
2022/11/15 01:42:59;;;;;;;11.23;3.70;;;;;;;;;;1831479;76;26263;-65
2022/11/15 01:45:27;;;;;;;12.13;3.70;;;;;;;;;;1831409;76;27044;-65
2022/11/15 01:47:56;;;;;;;14.50;4.50;;;;;;;;;;1799059;78;25225;-65
2022/11/15 01:50:26;;;;;;;11.40;4.37;;;;;;;;;;1831535;78;26219;-64
2022/11/15 01:52:55;;;;;;;11.30;3.10;;;;;;;;;;1831632;76;26688;-65
2022/11/15 01:55:25;;;;;;;10.97;4.20;;;;;;;;;;1831519;78;26340;-65
2022/11/15 01:57:55;;;;;;;6.87;3.10;;;;;;;;;;1831655;76;26701;-65
2022/11/15 02:00:23;;;;;;;7.63;3.27;;;;;;;;;;1831553;78;26776;-65
2022/11/15 02:02:52;;;;;;;13.83;3.73;;;;;;;;;;1831584;76;26212;-65
2022/11/15 02:05:20;;;;;;;11.87;4.00;;;;;;;;;;1800681;78;26341;-65
2022/11/15 02:07:49;;;;;;;8.07;4.17;;;;;;;;;;1799576;78;26804;-65
2022/11/15 02:10:20;;;;;;;10.10;3.37;;;;;;;;;;1831631;76;26748;-64
2022/11/15 02:12:48;;;;;;;8.80;4.00;;;;;;;;;;1831471;78;26231;-67
2022/11/15 02:15:17;;;;;;;11.33;3.60;;;;;;;;;;1831761;76;26208;-65
2022/11/15 02:17:49;;;;;;;9.13;4.03;;;;;;;;;;1831581;78;26219;-64
2022/11/15 02:20:35;;;;;;;12.30;4.30;;;;;;;;;;1831391;78;25147;-65
2022/11/15 02:23:13;;;;;;;14.23;4.50;;;;;;;;;;1831690;76;26270;-64
2022/11/15 02:25:43;;;;;;;13.23;3.93;;;;;;;;;;1796351;79;26241;-65
2022/11/15 02:28:24;;;;;;;10.67;4.07;;;;;;;;;;1845366;78;26247;-65
2022/11/15 02:30:54;;;;;;;13.23;4.30;;;;;;;;;;1837544;78;26222;-65
2022/11/15 02:33:26;;;;;;;12.13;4.30;;;;;;;;;;1813972;79;26240;-66
2022/11/15 02:35:58;;;;;;;11.37;5.03;;;;;;;;;;1813963;79;26238;-65
2022/11/15 02:38:29;;;;;;;14.90;4.50;;;;;;;;;;1814176;79;26243;-65
2022/11/15 02:40:59;;;;;;;15.63;4.67;;;;;;;;;;1813928;78;26252;-64
2022/11/15 02:47:12;;;;;;;13.40;4.73;;;;;;;;;;1790086;79;26235;-65
2022/11/15 02:48:58;;;;;;;16.03;4.73;;;;;;;;;;1809240;79;26326;-65
2022/11/15 02:51:26;;;;;;;16.00;5.43;;;;;;;;;;1814117;79;26483;-65
2022/11/15 02:53:55;;;;;;;11.27;4.93;;;;;;;;;;1784816;79;26292;-66
2022/11/15 02:56:23;;;;;;;13.63;4.53;;;;;;;;;;1814476;79;26707;-65
2022/11/15 02:59:00;;;;;;;11.40;5.30;;;;;;;;;;1814279;79;25161;-65
2022/11/15 03:01:32;;;;;;;15.67;5.33;;;;;;;;;;1783501;79;26238;-66
2022/11/15 03:04:02;;;;;;;14.10;5.60;;;;;;;;;;1813894;79;27049;-65
2022/11/15 03:06:33;;;;;;;13.17;5.60;;;;;;;;;;1837882;78;26723;-65
2022/11/15 03:09:04;;;;;;;12.30;5.40;;;;;;;;;;1813976;79;26240;-65
2022/11/15 03:11:35;;;;;;;14.03;5.40;;;;;;;;;;1813884;79;26242;-65
2022/11/15 03:14:05;;;;;;;11.50;5.80;;;;;;;;;;1814135;79;26229;-65
2022/11/15 03:16:36;;;;;;;11.53;5.73;;;;;;;;;;1813694;79;24612;-65
2022/11/15 03:19:06;;;;;;;10.03;6.13;;;;;;;;;;1838096;78;26217;-65
2022/11/15 03:21:35;;;;;;;11.67;6.23;;;;;;;;;;1813988;79;26293;-65
2022/11/15 03:24:04;;;;;;;11.33;6.33;;;;;;;;;;1814093;79;26226;-65
2022/11/15 03:26:34;;;;;;;13.97;6.20;;;;;;;;;;1813882;79;24648;-65
2022/11/15 03:29:04;;;;;;;9.77;6.70;;;;;;;;;;1814134;79;26281;-65
2022/11/15 03:31:48;;;;;;;13.15;6.80;;;;;;;;;;1813949;79;26305;-65
2022/11/15 03:34:20;;;;;;;16.07;6.40;;;;;;;;;;1788189;79;26235;-65
2022/11/15 03:36:50;;;;;;;12.65;5.80;;;;;;;;;;1814002;79;26238;-65
2022/11/15 03:39:18;;;;;;;10.93;6.23;;;;;;;;;;1814077;79;24237;-65
2022/11/15 03:41:49;;;;;;;10.77;6.70;;;;;;;;;;1814114;78;25212;-66
2022/11/15 03:44:20;;;;;;;11.47;6.37;;;;;;;;;;1814028;79;26223;-65
2022/11/15 03:46:50;;;;;;;17.10;6.50;;;;;;;;;;1837831;78;26278;-65
2022/11/15 03:49:20;;;;;;;10.57;7.03;;;;;;;;;;1814057;79;26227;-65
2022/11/15 03:51:48;;;;;;;11.67;6.37;;;;;;;;;;1813939;79;26704;-65
2022/11/15 03:54:16;;;;;;;12.57;6.67;;;;;;;;;;1814078;79;25815;-66
2022/11/15 03:56:45;;;;;;;11.63;6.87;;;;;;;;;;1813895;79;26238;-65
2022/11/15 03:59:13;;;;;;;11.50;6.37;;;;;;;;;;1814218;79;26235;-66
2022/11/15 04:01:42;;;;;;;11.47;6.10;;;;;;;;;;1813765;79;26242;-67
2022/11/15 04:04:10;;;;;;;9.20;6.43;;;;;;;;;;1814175;79;26306;-65
2022/11/15 04:06:39;;;;;;;10.67;6.20;;;;;;;;;;1813816;79;26237;-66
2022/11/15 04:09:08;;;;;;;9.03;5.77;;;;;;;;;;1830588;78;26290;-65
2022/11/15 04:11:36;;;;;;;8.53;5.30;;;;;;;;;;1831470;78;26322;-66
2022/11/15 04:14:05;;;;;;;5.77;5.17;;;;;;;;;;1831518;78;26230;-66
2022/11/15 04:16:33;;;;;;;6.53;4.63;;;;;;;;;;1803873;78;26615;-67
2022/11/15 04:24:33;;;;;;;7.60;4.50;;;;;;;;;;1831844;78;26242;-66
2022/11/15 04:27:02;;;;;;;6.80;4.67;;;;;;;;;;1803895;78;26226;-65
2022/11/15 04:29:37;;;;;;;8.40;4.90;;;;;;;;;;1831925;78;25148;-66
2022/11/15 04:32:07;;;;;;;7.23;4.40;;;;;;;;;;1831608;78;26811;-68
2022/11/15 04:34:35;;;;;;;4.70;4.00;;;;;;;;;;1831853;78;26238;-66
2022/11/15 04:37:13;;;;;;;7.30;4.27;;;;;;;;;;1831637;78;26296;-67
2022/11/15 04:39:41;;;;;;;5.00;4.00;;;;;;;;;;1831560;78;26284;-66
2022/11/15 04:42:10;;;;;;;5.23;4.10;;;;;;;;;;1831668;77;26345;-66
2022/11/15 04:44:38;;;;;;;3.87;3.57;;;;;;;;;;1803878;78;26225;-68
2022/11/15 04:47:07;;;;;;;4.43;3.70;;;;;;;;;;1831577;78;26303;-70
2022/11/15 04:49:35;;;;;;;4.63;4.07;;;;;;;;;;1831586;78;26291;-67
2022/11/15 04:52:04;;;;;;;6.53;3.70;;;;;;;;;;1838513;77;26248;-66
2022/11/15 04:54:33;;;;;;;6.80;4.10;;;;;;;;;;1864989;77;26221;-67
2022/11/15 04:57:01;;;;;;;5.10;4.10;;;;;;;;;;1864103;77;26812;-67
2022/11/15 04:59:29;;;;;;;4.57;4.20;;;;;;;;;;1864306;77;24159;-65
2022/11/15 05:01:58;;;;;;;4.67;4.27;;;;;;;;;;1795850;78;609795;-70
2022/11/15 05:04:26;;;;;;;4.63;3.63;;;;;;;;;;1826990;78;26256;-68
2022/11/15 05:06:55;;;;;;;6.10;3.93;;;;;;;;;;1864021;77;24611;-68
2022/11/15 05:09:23;;;;;;;5.60;4.27;;;;;;;;;;1842955;77;26285;-70
2022/11/15 05:11:51;;;;;;;5.03;4.53;;;;;;;;;;1838003;78;26226;-68
2022/11/15 05:14:20;;;;;;;4.83;4.07;;;;;;;;;;1838013;78;26226;-68
2022/11/15 05:16:48;;;;;;;4.80;4.43;;;;;;;;;;1837941;78;26295;-65
2022/11/15 05:19:17;;;;;;;4.47;4.17;;;;;;;;;;1838036;78;26735;-66
2022/11/15 05:21:45;;;;;;;4.83;4.20;;;;;;;;;;1837886;78;26523;-65
2022/11/15 05:24:13;;;;;;;4.13;3.70;;;;;;;;;;1819240;78;25644;-65
2022/11/15 05:26:42;;;;;;;5.17;4.67;;;;;;;;;;1837885;78;26288;-65
2022/11/15 05:29:11;;;;;;;5.90;5.27;;;;;;;;;;1838085;78;26268;-64
2022/11/15 05:31:42;;;;;;;6.20;4.80;;;;;;;;;;1837851;78;26210;-65
2022/11/15 05:34:10;;;;;;;6.10;5.50;;;;;;;;;;1838043;78;26225;-65
2022/11/15 05:36:39;;;;;;;5.80;5.30;;;;;;;;;;1838061;78;27092;-65
2022/11/15 05:39:08;;;;;;;6.63;5.03;;;;;;;;;;1794976;78;26763;-65
2022/11/15 05:41:38;;;;;;;6.90;5.27;;;;;;;;;;1838127;78;26352;-65
2022/11/15 05:44:08;;;;;;;5.83;5.23;;;;;;;;;;1837853;78;26679;-65
2022/11/15 05:46:38;;;;;;;9.90;5.40;;;;;;;;;;1837895;78;26279;-65
2022/11/15 05:49:09;;;;;;;7.80;5.07;;;;;;;;;;1837952;78;26225;-68
2022/11/15 05:51:37;;;;;;;8.37;5.63;;;;;;;;;;1837913;78;24158;-65
2022/11/15 05:54:05;;;;;;;5.93;4.70;;;;;;;;;;1838065;78;26295;-66
2022/11/15 05:56:34;;;;;;;5.13;4.73;;;;;;;;;;1819027;78;26735;-65
2022/11/15 05:59:03;;;;;;;6.13;5.53;;;;;;;;;;1837999;78;26230;-65
2022/11/15 06:01:31;;;;;;;10.00;4.50;;;;;;;;;;1837714;78;26225;-66
2022/11/15 06:03:59;;;;;;;6.03;4.90;;;;;;;;;;1818927;78;26229;-65
2022/11/15 06:06:29;;;;;;;5.83;4.60;;;;;;;;;;1818765;78;26269;-65
2022/11/15 06:08:57;;;;;;;4.67;4.20;;;;;;;;;;1817372;78;26380;-64
2022/11/15 06:11:26;;;;;;;6.73;5.10;;;;;;;;;;1836004;78;26868;-65
2022/11/15 06:13:54;;;;;;;5.30;4.80;;;;;;;;;;1835771;78;26320;-65
2022/11/15 06:16:23;;;;;;;6.00;5.30;;;;;;;;;;1835881;78;26265;-65
2022/11/15 06:18:51;;;;;;;6.80;5.63;;;;;;;;;;1816506;78;26440;-65
2022/11/15 06:21:19;;;;;;;7.27;5.23;;;;;;;;;;1836123;78;26278;-65
2022/11/15 06:23:48;;;;;;;6.77;4.93;;;;;;;;;;1817204;78;26277;-65
2022/11/15 06:26:16;;;;;;;5.97;5.50;;;;;;;;;;1836198;78;26390;-65
2022/11/15 06:28:45;;;;;;;7.80;5.00;;;;;;;;;;1792368;78;26711;-65
2022/11/15 06:31:13;;;;;;;4.80;4.33;;;;;;;;;;1835803;78;26827;-65
2022/11/15 06:33:43;;;;;;;4.97;4.40;;;;;;;;;;1816515;78;26351;-65
2022/11/15 06:36:16;;;;;;;8.13;4.90;;;;;;;;;;1835928;78;26257;-65
2022/11/15 06:38:44;;;;;;;6.07;4.77;;;;;;;;;;1816727;78;26305;-65
2022/11/15 06:41:13;;;;;;;6.17;5.67;;;;;;;;;;1816889;78;26321;-65
2022/11/15 06:43:42;;;;;;;5.70;5.07;;;;;;;;;;1836037;78;26839;-65
2022/11/15 06:46:10;;;;;;;4.83;4.03;;;;;;;;;;1816741;78;26766;-65
2022/11/15 06:48:39;;;;;;;6.03;4.53;;;;;;;;;;1816802;78;26657;-65
2022/11/15 06:51:08;;;;;;;4.83;3.70;;;;;;;;;;1816821;78;26273;-65
2022/11/15 06:53:36;;;;;;;5.57;3.90;;;;;;;;;;1836278;78;26268;-65
2022/11/15 06:56:06;;;;;;;4.77;3.90;;;;;;;;;;1835855;78;26281;-65
2022/11/15 06:58:35;;;;;;;4.67;3.93;;;;;;;;;;1837984;78;26217;-65
2022/11/15 07:01:05;;;;;;;4.93;3.63;;;;;;;;;;1837824;78;26230;-65
2022/11/15 07:03:34;;;;;;;4.07;3.60;;;;;;;;;;1838129;78;26229;-65
2022/11/15 07:06:03;;;;;;;7.10;3.80;;;;;;;;;;1837873;78;26213;-65
2022/11/15 07:08:32;;;;;;;4.07;3.10;;;;;;;;;;1794540;78;26226;-65
2022/11/15 07:11:01;;;;;;;3.60;2.87;;;;;;;;;;1819107;78;26829;-65
2022/11/15 07:13:32;;;;;;;5.00;3.47;;;;;;;;;;1838164;78;26225;-65
2022/11/15 07:16:03;;;;;;;5.30;2.97;;;;;;;;;;1819434;78;25205;-65
2022/11/15 07:18:32;;;;;;;5.37;2.63;;;;;;;;;;1837973;78;22081;-65
2022/11/15 07:21:02;;;;;;;3.60;3.30;;;;;;;;;;1819312;78;26295;-67
2022/11/15 07:23:30;;;;;;;4.57;3.87;;;;;;;;;;1838089;78;26217;-65
2022/11/15 07:25:59;;;;;;;4.47;3.90;;;;;;;;;;1838129;78;22135;-65
2022/11/15 07:28:27;;;;;;;6.27;3.70;;;;;;;;;;1819221;78;26230;-64
2022/11/15 07:30:55;;;;;;;4.37;3.47;;;;;;;;;;1837847;78;26253;-64
2022/11/15 07:33:24;;;;;;;6.27;4.23;;;;;;;;;;1819115;78;25217;-64
2022/11/15 07:35:53;;;;;;;5.53;3.33;;;;;;;;;;1819074;78;26280;-64
2022/11/15 07:38:22;;;;;;;4.17;3.80;;;;;;;;;;1795238;78;25240;-65
2022/11/15 07:40:57;;;;;;;3.77;3.57;;;;;;;;;;1838026;78;26222;-64
2022/11/15 07:43:27;;;;;;;3.67;3.33;;;;;;;;;;1838032;78;26227;-64
2022/11/15 07:45:56;;;;;;;3.73;3.07;;;;;;;;;;1837905;78;26210;-65
2022/11/15 07:48:24;;;;;;;5.33;3.73;;;;;;;;;;1837980;78;26734;-66
2022/11/15 07:50:52;;;;;;;4.90;3.97;;;;;;;;;;1837913;78;26218;-64
2022/11/15 07:53:21;;;;;;;4.53;3.07;;;;;;;;;;1837913;77;26326;-64
2022/11/15 07:55:49;;;;;;;4.23;4.00;;;;;;;;;;1838030;78;25202;-64
2022/11/15 07:58:18;;;;;;;5.23;4.73;;;;;;;;;;1838004;78;27147;-64
2022/11/15 08:00:46;;;;;;;7.00;4.33;;;;;;;;;;1837813;78;26695;-63
2022/11/15 08:03:16;;;;;;;5.43;3.60;;;;;;;;;;1838032;78;26225;-63
2022/11/15 08:05:46;;;;;;;6.67;5.13;;;;;;;;;;1838025;78;26218;-63
2022/11/15 08:08:14;;;;;;;4.77;4.20;;;;;;;;;;1837693;78;26314;-64
2022/11/15 08:10:43;;;;;;;3.57;3.33;;;;;;;;;;1837824;77;26370;-64
2022/11/15 08:13:12;;;;;;;3.60;3.40;;;;;;;;;;1838021;78;26250;-62
2022/11/15 08:15:40;;;;;;;4.60;4.00;;;;;;;;;;1837840;78;26315;-62
2022/11/15 08:18:12;;;;;;;3.90;3.27;;;;;;;;;;1838001;78;25160;-62
2022/11/15 08:20:40;;;;;;;3.80;3.07;;;;;;;;;;1838236;78;27038;-62
2022/11/15 08:23:09;;;;;;;5.30;4.80;;;;;;;;;;1819220;78;27087;-61
2022/11/15 08:25:38;;;;;;;5.80;5.50;;;;;;;;;;1837873;78;26268;-61
2022/11/15 08:28:07;;;;;;;6.30;3.93;;;;;;;;;;1838052;78;26226;-62
2022/11/15 08:30:36;;;;;;;4.17;3.77;;;;;;;;;;1837883;78;26218;-62
2022/11/15 08:33:05;;;;;;;4.47;4.10;;;;;;;;;;1838048;78;24232;-62
2022/11/15 08:35:33;;;;;;;4.73;4.40;;;;;;;;;;1837891;78;26712;-62
2022/11/15 08:38:02;;;;;;;4.57;4.27;;;;;;;;;;1837951;78;25163;-62
2022/11/15 08:40:30;;;;;;;6.27;4.00;;;;;;;;;;1819160;78;26226;-62
2022/11/15 08:43:02;;;;;;;8.23;7.73;;;;;;;;;;1819099;78;26281;-62
2022/11/15 08:45:29;;;;;;;5.40;5.10;;;;;;;;;;1818616;78;26221;-62
2022/11/15 08:47:57;;;;;;;6.53;6.13;;;;;;;;;;1838008;78;26319;-62
2022/11/15 08:50:26;;;;;;;8.20;7.70;;;;;;;;;;1837860;78;26271;-62
2022/11/15 08:52:54;;;;;;;5.50;5.20;;;;;;;;;;1837978;78;26323;-62
2022/11/15 08:55:23;;;;;;;7.27;6.67;;;;;;;;;;1837858;78;26303;-62
2022/11/15 08:57:51;;;;;;;8.60;7.90;;;;;;;;;;1795150;78;25140;-62
2022/11/15 09:00:20;;;;;;;6.60;6.10;;;;;;;;;;1837815;78;26229;-62
2022/11/15 09:02:48;;;;;;;6.50;6.20;;;;;;;;;;1837805;78;26222;-62
2022/11/15 09:05:18;;;;;;;7.10;6.60;;;;;;;;;;1837880;78;26296;-62
2022/11/15 09:07:46;;;;;;;8.40;7.70;;;;;;;;;;1819308;78;26218;-62
2022/11/15 09:10:15;;;;;;;5.50;5.10;;;;;;;;;;1837768;77;26292;-62
2022/11/15 09:12:45;;;;;;;5.70;4.27;;;;;;;;;;1837894;78;26813;-62
2022/11/15 09:15:13;;;;;;;6.10;5.70;;;;;;;;;;1819108;78;26246;-62
2022/11/15 09:17:42;;;;;;;5.60;5.20;;;;;;;;;;1837840;78;26230;-62
2022/11/15 09:20:11;;;;;;;4.73;4.37;;;;;;;;;;1837810;78;27086;-62
2022/11/15 09:22:40;;;;;;;5.87;5.10;;;;;;;;;;1807217;79;26255;-62
2022/11/15 09:25:09;;;;;;;5.87;5.20;;;;;;;;;;1784517;80;26211;-63
2022/11/15 09:27:37;;;;;;;8.07;7.67;;;;;;;;;;1784414;80;25181;-63
2022/11/15 09:30:07;;;;;;;7.10;6.60;;;;;;;;;;1784456;80;22069;-63
2022/11/15 09:32:35;;;;;;;5.40;5.00;;;;;;;;;;1784459;80;24278;-63
2022/11/15 09:35:04;;;;;;;6.00;5.60;;;;;;;;;;1784365;80;25267;-63
2022/11/15 09:37:33;;;;;;;6.87;6.57;;;;;;;;;;1784400;80;26396;-63
2022/11/15 09:40:02;;;;;;;6.47;5.10;;;;;;;;;;1799637;80;26304;-63
2022/11/15 09:42:34;;;;;;;6.77;6.27;;;;;;;;;;1806114;79;26868;-63
2022/11/15 09:45:09;;;;;;;6.77;6.10;;;;;;;;;;1805915;79;26307;-63
2022/11/15 09:48:09;;;;;;;7.23;6.53;;;;;;;;;;1806191;79;26371;-63
2022/11/15 09:50:39;;;;;;;5.93;5.43;;;;;;;;;;1770882;79;26241;-63
2022/11/15 09:53:12;;;;;;;5.75;5.35;;;;;;;;;;1784470;80;26299;-63
2022/11/15 09:55:42;;;;;;;7.73;7.07;;;;;;;;;;1807557;79;26249;-63
2022/11/15 09:58:13;;;;;;;7.55;7.10;;;;;;;;;;1807465;79;26244;-63
2022/11/15 10:00:42;;;;;;;7.20;6.85;;;;;;;;;;1807129;79;26294;-64
2022/11/15 10:03:13;;;;;;;7.37;6.87;;;;;;;;;;1807475;79;26219;-63
2022/11/15 10:05:42;;;;;;;7.20;6.80;;;;;;;;;;1784352;80;26254;-62
2022/11/15 10:08:14;;;;;;;6.53;6.13;;;;;;;;;;1784348;80;26238;-64
2022/11/15 10:10:44;;;;;;;6.67;6.27;;;;;;;;;;1810935;78;26300;-63
2022/11/15 10:13:14;;;;;;;5.10;4.87;;;;;;;;;;1810314;79;26228;-64
2022/11/15 10:15:47;;;;;;;6.47;6.17;;;;;;;;;;1810217;79;26254;-64
2022/11/15 10:18:17;;;;;;;4.43;4.20;;;;;;;;;;1810391;79;26733;-64
2022/11/15 10:20:50;;;;;;;3.50;3.30;;;;;;;;;;1810230;79;26239;-66
2022/11/15 10:23:19;;;;;;;4.90;4.40;;;;;;;;;;1810347;79;26286;-63
2022/11/15 10:25:49;;;;;;;4.90;4.40;;;;;;;;;;1810212;79;26240;-64
2022/11/15 10:28:19;;;;;;;4.67;4.27;;;;;;;;;;1840179;78;26249;-64
2022/11/15 10:30:49;;;;;;;5.77;4.63;;;;;;;;;;1840040;78;26236;-64
2022/11/15 10:33:26;;;;;;;4.60;3.80;;;;;;;;;;1840126;78;26229;-64
2022/11/15 10:36:15;;;;;;;6.33;3.80;;;;;;;;;;1810263;79;26247;-64
2022/11/15 10:38:54;;;;;;;5.33;3.80;;;;;;;;;;1831600;78;26303;-64
2022/11/15 10:41:24;;;;;;;8.87;4.00;;;;;;;;;;1810040;79;26283;-66
2022/11/15 10:44:04;;;;;;;6.57;3.90;;;;;;;;;;1837725;78;26287;-64
2022/11/15 10:46:32;;;;;;;13.83;4.17;;;;;;;;;;1839972;78;26245;-64
2022/11/15 10:49:09;;;;;;;12.53;4.07;;;;;;;;;;1810197;79;26252;-64
2022/11/15 10:51:39;;;;;;;16.47;4.60;;;;;;;;;;1839897;78;26760;-64
2022/11/15 10:54:09;;;;;;;11.10;4.30;;;;;;;;;;1840058;78;26252;-65
2022/11/15 10:56:38;;;;;;;9.83;4.13;;;;;;;;;;1810238;79;26737;-63
2022/11/15 10:59:08;;;;;;;11.20;4.27;;;;;;;;;;1810278;79;26277;-64
2022/11/15 11:01:41;;;;;;;13.27;4.53;;;;;;;;;;1830383;78;26251;-63
2022/11/15 11:04:09;;;;;;;10.83;4.43;;;;;;;;;;1809042;79;26244;-64
2022/11/15 11:06:47;;;;;;;13.37;4.80;;;;;;;;;;1810432;79;27224;-63
2022/11/15 11:09:22;;;;;;;11.03;4.20;;;;;;;;;;1810386;79;26248;-63
2022/11/15 11:11:52;;;;;;;9.87;4.10;;;;;;;;;;1810308;78;26357;-64
2022/11/15 11:14:23;;;;;;;7.97;3.73;;;;;;;;;;1810286;79;26255;-63
2022/11/15 11:16:52;;;;;;;9.90;4.43;;;;;;;;;;1810257;79;26836;-63
2022/11/15 11:19:32;;;;;;;12.47;4.17;;;;;;;;;;1831441;78;26298;-63
2022/11/15 11:22:03;;;;;;;12.63;4.53;;;;;;;;;;1810155;79;26228;-63
2022/11/15 11:24:33;;;;;;;10.07;4.97;;;;;;;;;;1831652;78;26240;-64
2022/11/15 11:27:08;;;;;;;6.10;5.50;;;;;;;;;;1831378;78;27023;-63
2022/11/15 11:29:42;;;;;;;4.20;3.90;;;;;;;;;;1831672;78;26291;-63
2022/11/15 11:32:12;;;;;;;3.90;3.70;;;;;;;;;;1831701;78;26228;-63
2022/11/15 11:34:44;;;;;;;2.70;2.50;;;;;;;;;;1830354;78;26256;-63
2022/11/15 11:37:14;;;;;;;3.13;2.57;;;;;;;;;;1809930;79;26333;-63
2022/11/15 11:39:44;;;;;;;3.30;2.60;;;;;;;;;;1840030;78;26236;-63
2022/11/15 11:42:17;;;;;;;2.80;2.43;;;;;;;;;;1839607;78;26871;-63
2022/11/15 11:44:47;;;;;;;3.00;2.70;;;;;;;;;;1837985;78;26283;-63
2022/11/15 11:47:18;;;;;;;2.30;2.10;;;;;;;;;;1839408;78;26240;-64
2022/11/15 11:49:48;;;;;;;3.37;2.80;;;;;;;;;;1840070;78;26243;-63
2022/11/15 11:52:18;;;;;;;4.93;2.43;;;;;;;;;;1839910;78;26237;-63
2022/11/15 11:54:52;;;;;;;2.60;2.40;;;;;;;;;;1810238;79;26851;-63
2022/11/15 11:57:26;;;;;;;3.73;2.90;;;;;;;;;;1831530;78;26394;-63
2022/11/15 11:59:56;;;;;;;4.90;4.50;;;;;;;;;;1810105;79;26256;-63
2022/11/15 12:02:28;;;;;;;3.40;3.13;;;;;;;;;;1839828;78;26240;-63
2022/11/15 12:04:58;;;;;;;2.57;2.37;;;;;;;;;;1839944;78;26298;-62
2022/11/15 12:07:28;;;;;;;2.63;2.43;;;;;;;;;;1839916;78;26797;-63
2022/11/15 12:09:58;;;;;;;2.77;2.50;;;;;;;;;;1840040;78;26247;-63
2022/11/15 12:12:30;;;;;;;2.83;2.20;;;;;;;;;;1818293;78;26361;-63
2022/11/15 12:15:00;;;;;;;4.33;2.90;;;;;;;;;;1758140;81;26353;-63
2022/11/15 12:17:31;;;;;;;3.83;3.50;;;;;;;;;;1789465;79;26345;-63
2022/11/15 12:20:00;;;;;;;3.67;3.37;;;;;;;;;;1776928;81;26317;-63
2022/11/15 12:22:31;;;;;;;3.60;3.30;;;;;;;;;;1777061;79;26259;-63
2022/11/15 12:25:01;;;;;;;3.47;2.20;;;;;;;;;;1807627;79;26302;-63
2022/11/15 12:27:33;;;;;;;2.90;2.60;;;;;;;;;;1807629;79;26726;-63
2022/11/15 12:30:03;;;;;;;2.93;2.17;;;;;;;;;;1807461;79;26329;-66
2022/11/15 12:32:33;;;;;;;4.93;2.83;;;;;;;;;;1807700;79;26287;-63
2022/11/15 12:35:02;;;;;;;4.03;2.93;;;;;;;;;;1777131;79;26259;-62
2022/11/15 12:37:50;;;;;;;4.43;3.97;;;;;;;;;;1777026;79;26251;-63
2022/11/15 12:40:21;;;;;;;4.03;3.53;;;;;;;;;;1777100;79;26251;-63
2022/11/15 12:43:17;;;;;;;3.80;3.50;;;;;;;;;;1777067;79;26295;-62
2022/11/15 12:45:46;;;;;;;4.50;4.10;;;;;;;;;;1791897;79;26770;-63
2022/11/15 12:48:32;;;;;;;4.87;4.03;;;;;;;;;;1807606;79;26232;-63
2022/11/15 12:51:00;;;;;;;5.27;4.00;;;;;;;;;;1807682;79;26229;-63
2022/11/15 12:53:29;;;;;;;6.40;4.80;;;;;;;;;;1807831;79;26291;-63
2022/11/15 12:56:12;;;;;;;4.43;3.40;;;;;;;;;;1807633;79;26864;-63
2022/11/15 12:58:43;;;;;;;5.03;3.77;;;;;;;;;;1806757;79;26291;-63
2022/11/15 13:01:13;;;;;;;4.33;3.40;;;;;;;;;;1807537;79;26229;-63
2022/11/15 13:04:00;;;;;;;3.90;3.50;;;;;;;;;;1774934;79;26201;-64
2022/11/15 13:06:47;;;;;;;4.00;3.60;;;;;;;;;;1807582;79;26236;-63
2022/11/15 13:09:32;;;;;;;5.07;4.37;;;;;;;;;;1807698;79;26229;-63
2022/11/15 13:12:01;;;;;;;6.13;4.20;;;;;;;;;;1805732;79;26289;-63
2022/11/15 13:14:49;;;;;;;7.63;4.33;;;;;;;;;;1801380;79;26743;-63
2022/11/15 13:17:43;;;;;;;5.93;3.57;;;;;;;;;;1801351;79;26211;-63
2022/11/15 13:20:28;;;;;;;4.40;4.00;;;;;;;;;;1801513;79;26837;-63
2022/11/15 13:23:02;;;;;;;7.40;4.70;;;;;;;;;;1801610;79;26215;-64
2022/11/15 13:25:52;;;;;;;4.87;4.47;;;;;;;;;;1801447;79;26285;-63
2022/11/15 13:28:23;;;;;;;7.77;4.37;;;;;;;;;;1801290;79;26742;-63
2022/11/15 13:30:53;;;;;;;4.60;3.50;;;;;;;;;;1800477;79;26352;-63
2022/11/15 13:33:23;;;;;;;4.77;3.27;;;;;;;;;;1799573;79;27509;-63
2022/11/15 13:35:53;;;;;;;6.33;3.90;;;;;;;;;;1801416;79;26234;-63
2022/11/15 13:38:27;;;;;;;6.10;3.67;;;;;;;;;;1801590;79;26305;-63
2022/11/15 13:40:56;;;;;;;7.10;3.80;;;;;;;;;;1801248;79;26889;-62
2022/11/15 13:43:28;;;;;;;7.60;4.23;;;;;;;;;;1801230;79;26688;-62
2022/11/15 13:46:05;;;;;;;6.93;5.63;;;;;;;;;;1801326;79;26238;-63
2022/11/15 13:48:34;;;;;;;13.03;8.50;;;;;;;;;;1801667;79;26215;-62
2022/11/15 13:51:03;;;;;;;8.63;6.03;;;;;;;;;;1801424;79;26234;-62
2022/11/15 13:53:33;;;;;;;6.10;5.07;;;;;;;;;;1770446;79;26280;-62
2022/11/15 13:56:03;;;;;;;7.57;4.63;;;;;;;;;;1801333;79;26767;-62
2022/11/15 13:58:32;;;;;;;9.03;7.10;;;;;;;;;;1801677;79;26222;-63
2022/11/15 14:01:02;;;;;;;8.67;4.30;;;;;;;;;;1801357;79;26226;-63
2022/11/15 14:03:32;;;;;;;8.80;4.90;;;;;;;;;;1801461;79;26724;-62
2022/11/15 14:06:04;;;;;;;9.13;5.83;;;;;;;;;;1801512;79;26742;-62
2022/11/15 14:08:33;;;;;;;7.70;5.13;;;;;;;;;;1801738;79;26817;-62
2022/11/15 14:11:08;;;;;;;12.10;5.50;;;;;;;;;;1801562;79;26206;-63
2022/11/15 14:13:37;;;;;;;7.87;4.90;;;;;;;;;;1801580;78;26799;-62
2022/11/15 14:16:16;;;;;;;5.73;4.80;;;;;;;;;;1801428;79;26401;-62
2022/11/15 14:18:46;;;;;;;7.13;4.40;;;;;;;;;;1801506;79;26497;-62
2022/11/15 14:21:15;;;;;;;8.47;4.17;;;;;;;;;;1801405;79;26802;-62
2022/11/15 14:23:43;;;;;;;6.17;3.97;;;;;;;;;;1801464;79;26265;-63
2022/11/15 14:26:28;;;;;;;7.80;4.30;;;;;;;;;;1771364;79;26285;-62
2022/11/15 14:28:57;;;;;;;5.55;4.45;;;;;;;;;;1801440;79;26230;-62
2022/11/15 14:31:26;;;;;;;5.60;5.05;;;;;;;;;;1801465;79;26223;-62
2022/11/15 14:33:54;;;;;;;7.80;5.10;;;;;;;;;;1801614;79;26692;-63
2022/11/15 14:36:23;;;;;;;5.97;4.67;;;;;;;;;;1801266;79;26218;-63
2022/11/15 14:38:51;;;;;;;5.53;4.10;;;;;;;;;;1801593;79;26516;-63
2022/11/15 14:41:21;;;;;;;6.67;4.90;;;;;;;;;;1770471;79;26828;-62
2022/11/15 14:43:50;;;;;;;8.50;5.97;;;;;;;;;;1801502;79;26219;-62
2022/11/15 14:46:18;;;;;;;5.70;5.20;;;;;;;;;;1801558;79;26206;-63
2022/11/15 14:48:47;;;;;;;8.23;6.67;;;;;;;;;;1756347;80;26237;-65
2022/11/15 14:51:17;;;;;;;8.77;6.40;;;;;;;;;;1784565;80;26244;-63
2022/11/15 14:53:46;;;;;;;9.50;6.57;;;;;;;;;;1784450;80;26225;-63
2022/11/15 14:56:16;;;;;;;5.20;4.60;;;;;;;;;;1770977;80;26237;-63
2022/11/15 14:58:44;;;;;;;4.63;4.13;;;;;;;;;;1807882;78;26287;-63
2022/11/15 15:01:15;;;;;;;5.27;4.77;;;;;;;;;;1784201;80;26749;-62
2022/11/15 15:03:43;;;;;;;5.53;4.30;;;;;;;;;;1784354;80;26241;-64
2022/11/15 15:06:13;;;;;;;6.63;3.87;;;;;;;;;;1747872;80;26287;-62
2022/11/15 15:08:42;;;;;;;3.85;3.50;;;;;;;;;;1806294;79;26298;-64